createdAt,value
2018-12-17T00:02:00.301Z,1.07
2018-12-17T00:06:58.713Z,0.90
2018-12-17T00:09:24.797Z,0.93
2018-12-17T00:11:50.845Z,1.00
2018-12-17T00:14:17.221Z,0.90
2018-12-17T00:16:43.935Z,1.10
2018-12-17T00:19:10.005Z,1.10
2018-12-17T00:21:36.163Z,1.13
2018-12-17T00:24:02.190Z,1.30
2018-12-17T00:26:28.256Z,1.20
2018-12-17T00:28:54.636Z,1.27
2018-12-17T00:31:20.688Z,1.27
2018-12-17T00:33:46.753Z,1.30
2018-12-17T00:36:13.185Z,1.50
2018-12-17T00:38:39.225Z,1.10
2018-12-17T00:41:05.257Z,1.47
2018-12-17T00:43:31.731Z,1.20
2018-12-17T00:45:57.775Z,1.20
2018-12-17T00:48:23.915Z,1.50
2018-12-17T00:50:50.064Z,1.20
2018-12-17T00:53:16.135Z,1.23
2018-12-17T00:55:42.234Z,1.23
2018-12-17T00:58:14.996Z,1.00
2018-12-17T01:00:36.463Z,1.10
2018-12-17T01:03:02.469Z,1.20
2018-12-17T01:05:28.713Z,1.30
2018-12-17T01:07:54.750Z,1.50
2018-12-17T01:10:20.797Z,1.10
2018-12-17T01:12:47.129Z,1.30
2018-12-17T01:15:13.287Z,1.07
2018-12-17T01:17:39.324Z,0.97
2018-12-17T01:20:05.967Z,1.30
2018-12-17T01:22:32.032Z,1.00
2018-12-17T01:24:58.040Z,1.00
2018-12-17T01:27:24.310Z,1.20
2018-12-17T01:29:50.367Z,1.07
2018-12-17T01:32:16.401Z,1.10
2018-12-17T01:34:42.627Z,1.00
2018-12-17T01:37:08.681Z,1.30
2018-12-17T01:39:34.715Z,1.10
2018-12-17T01:42:00.916Z,1.33
2018-12-17T01:44:26.991Z,1.30
2018-12-17T01:46:53.034Z,1.20
2018-12-17T01:49:19.383Z,1.40
2018-12-17T01:51:45.480Z,1.00
2018-12-17T01:54:11.510Z,1.10
2018-12-17T01:56:37.842Z,1.20
2018-12-17T01:59:04.002Z,1.07
2018-12-17T02:01:30.201Z,0.80
2018-12-17T02:03:56.472Z,1.10
2018-12-17T02:06:22.559Z,0.93
2018-12-17T02:08:48.734Z,1.40
2018-12-17T02:11:15.040Z,1.33
2018-12-17T02:13:41.230Z,1.20
2018-12-17T02:16:07.581Z,1.30
2018-12-17T02:18:33.700Z,1.30
2018-12-17T02:20:59.740Z,1.20
2018-12-17T02:23:25.760Z,1.37
2018-12-17T02:25:52.018Z,1.00
2018-12-17T02:28:18.088Z,1.60
2018-12-17T02:30:44.115Z,1.47
2018-12-17T02:33:10.436Z,1.33
2018-12-17T02:35:36.481Z,1.10
2018-12-17T02:38:02.566Z,0.90
2018-12-17T02:40:28.876Z,1.27
2018-12-17T02:43:01.775Z,1.43
2018-12-17T02:45:27.811Z,1.73
2018-12-17T02:47:53.996Z,1.50
2018-12-17T02:50:20.048Z,1.23
2018-12-17T02:52:46.089Z,1.10
2018-12-17T02:55:12.282Z,1.17
2018-12-17T02:57:38.344Z,1.53
2018-12-17T03:00:06.338Z,1.43
2018-12-17T03:02:32.572Z,1.50
2018-12-17T03:04:58.646Z,1.60
2018-12-17T03:07:24.731Z,1.60
2018-12-17T03:09:51.087Z,1.40
2018-12-17T03:12:17.126Z,1.03
2018-12-17T03:14:43.147Z,1.27
2018-12-17T03:17:09.556Z,1.40
2018-12-17T03:19:35.589Z,1.43
2018-12-17T03:22:01.759Z,1.30
2018-12-17T03:24:28.026Z,0.93
2018-12-17T03:26:54.057Z,1.40
2018-12-17T03:29:20.089Z,1.70
2018-12-17T03:31:46.765Z,1.27
2018-12-17T03:34:12.790Z,1.33
2018-12-17T03:36:38.843Z,1.10
2018-12-17T03:39:05.363Z,1.20
2018-12-17T03:41:31.512Z,1.10
2018-12-17T03:43:57.521Z,1.20
2018-12-17T03:46:23.791Z,1.20
2018-12-17T03:48:49.850Z,1.13
2018-12-17T03:51:15.873Z,1.40
2018-12-17T03:53:42.105Z,1.03
2018-12-17T03:56:08.115Z,1.20
2018-12-17T03:58:34.156Z,1.23
2018-12-17T04:01:00.363Z,1.27
2018-12-17T04:03:26.413Z,1.00
2018-12-17T04:05:52.451Z,1.00
2018-12-17T04:08:18.779Z,0.90
2018-12-17T04:10:44.848Z,1.07
2018-12-17T04:13:11.128Z,0.93
2018-12-17T04:15:37.425Z,0.70
2018-12-17T04:18:03.848Z,1.13
2018-12-17T04:20:29.885Z,1.10
2018-12-17T04:22:56.116Z,1.20
2018-12-17T04:25:22.184Z,0.90
2018-12-17T04:27:48.251Z,0.97
2018-12-17T04:30:14.369Z,1.00
2018-12-17T04:32:40.407Z,1.17
2018-12-17T04:35:06.450Z,0.97
2018-12-17T04:37:32.721Z,0.97
2018-12-17T04:39:58.730Z,1.20
2018-12-17T04:42:24.826Z,1.07
2018-12-17T04:44:51.045Z,1.20
2018-12-17T04:47:17.078Z,1.17
2018-12-17T04:49:43.127Z,1.00
2018-12-17T04:52:09.334Z,1.00
2018-12-17T04:54:35.509Z,1.00
2018-12-17T04:57:01.579Z,1.00
2018-12-17T04:59:27.867Z,0.80
2018-12-17T05:01:54.495Z,1.30
2018-12-17T05:04:20.565Z,1.30
2018-12-17T05:06:46.773Z,1.30
2018-12-17T05:09:12.842Z,1.23
2018-12-17T05:11:38.826Z,1.10
2018-12-17T05:14:05.118Z,1.17
2018-12-17T05:16:31.180Z,0.90
2018-12-17T05:18:57.275Z,1.30
2018-12-17T05:21:23.687Z,1.13
2018-12-17T05:23:49.777Z,0.77
2018-12-17T05:26:16.081Z,1.23
2018-12-17T05:28:42.224Z,1.00
2018-12-17T05:31:08.367Z,1.20
2018-12-17T05:33:34.518Z,1.20
2018-12-17T05:36:00.915Z,1.17
2018-12-17T05:38:27.138Z,1.37
2018-12-17T05:40:53.417Z,1.10
2018-12-17T05:43:19.958Z,1.10
2018-12-17T05:45:46.025Z,1.27
2018-12-17T05:48:12.057Z,1.33
2018-12-17T05:50:38.319Z,1.27
2018-12-17T05:53:04.410Z,1.30
2018-12-17T05:55:30.478Z,1.43
2018-12-17T05:57:56.641Z,1.60
2018-12-17T06:00:23.914Z,1.43
2018-12-17T06:02:49.934Z,1.20
2018-12-17T06:05:16.268Z,1.40
2018-12-17T06:07:42.346Z,1.20
2018-12-17T06:10:08.446Z,1.40
2018-12-17T06:12:34.664Z,1.50
2018-12-17T06:15:00.755Z,1.43
2018-12-17T06:17:26.826Z,1.13
2018-12-17T06:19:53.077Z,1.10
2018-12-17T06:22:19.101Z,1.17
2018-12-17T06:24:45.432Z,1.30
2018-12-17T06:27:11.544Z,1.20
2018-12-17T06:29:37.546Z,1.17
2018-12-17T06:32:03.612Z,1.40
2018-12-17T06:34:29.757Z,1.23
2018-12-17T06:36:55.820Z,1.50
2018-12-17T06:39:22.058Z,1.03
2018-12-17T06:41:48.302Z,1.10
2018-12-17T06:44:14.419Z,1.23
2018-12-17T06:46:40.482Z,1.40
2018-12-17T06:49:06.718Z,1.10
2018-12-17T06:51:32.896Z,1.33
2018-12-17T06:53:59.010Z,1.30
2018-12-17T06:56:25.271Z,1.20
2018-12-17T06:58:51.352Z,1.10
2018-12-17T07:01:17.416Z,1.60
2018-12-17T07:03:43.674Z,1.20
2018-12-17T07:06:09.753Z,1.27
2018-12-17T07:08:35.846Z,1.43
2018-12-17T07:11:02.408Z,1.60
2018-12-17T07:13:28.480Z,1.80
2018-12-17T07:15:54.545Z,1.87
2018-12-17T07:18:20.824Z,1.33
2018-12-17T07:20:47.093Z,1.73
2018-12-17T07:26:09.531Z,1.50
2018-12-17T07:28:35.757Z,1.70
2018-12-17T07:31:01.831Z,1.77
2018-12-17T07:33:28.862Z,1.17
2018-12-17T07:35:55.503Z,1.63
2018-12-17T07:38:21.547Z,1.77
2018-12-17T07:40:47.761Z,1.40
2018-12-17T07:43:13.950Z,1.90
2018-12-17T07:45:39.979Z,1.70
2018-12-17T07:48:06.063Z,1.57
2018-12-17T07:50:32.293Z,1.60
2018-12-17T07:52:58.361Z,1.80
2018-12-17T07:55:24.403Z,2.00
2018-12-17T07:57:50.765Z,1.83
2018-12-17T08:00:16.859Z,1.80
2018-12-17T08:02:42.900Z,1.83
2018-12-17T08:05:09.510Z,1.87
2018-12-17T08:07:35.532Z,1.97
2018-12-17T08:10:01.615Z,1.97
2018-12-17T08:12:27.882Z,1.77
2018-12-17T08:14:53.961Z,2.20
2018-12-17T08:17:20.063Z,1.87
2018-12-17T08:19:46.336Z,2.03
2018-12-17T08:22:12.527Z,2.20
2018-12-17T08:24:38.576Z,2.10
2018-12-17T08:27:04.788Z,1.90
2018-12-17T08:29:30.850Z,2.00
2018-12-17T08:31:56.895Z,1.90
2018-12-17T08:34:23.161Z,1.80
2018-12-17T08:36:49.238Z,1.97
2018-12-17T08:39:15.389Z,1.90
2018-12-17T08:41:41.655Z,1.80
2018-12-17T08:44:07.720Z,1.90
2018-12-17T08:46:33.738Z,2.00
2018-12-17T08:49:00.042Z,1.90
2018-12-17T08:51:26.104Z,1.97
2018-12-17T08:53:53.089Z,1.70
2018-12-17T08:59:15.725Z,2.17
2018-12-17T09:01:42.258Z,1.77
2018-12-17T09:04:08.316Z,2.13
2018-12-17T09:06:34.347Z,1.70
2018-12-17T09:09:00.608Z,1.77
2018-12-17T09:11:26.909Z,2.20
2018-12-17T09:13:52.978Z,1.83
2018-12-17T09:16:19.285Z,2.27
2018-12-17T09:18:45.380Z,2.40
2018-12-17T09:21:11.444Z,2.60
2018-12-17T09:23:37.910Z,1.87
2018-12-17T09:26:04.089Z,2.40
2018-12-17T09:28:30.154Z,2.50
2018-12-17T09:30:56.524Z,2.23
2018-12-17T09:33:22.541Z,2.40
2018-12-17T09:35:48.647Z,2.60
2018-12-17T09:38:14.944Z,2.53
2018-12-17T09:40:41.110Z,2.43
2018-12-17T09:43:07.429Z,2.50
2018-12-17T09:45:33.665Z,2.53
2018-12-17T09:47:59.669Z,2.23
2018-12-17T09:50:25.754Z,2.70
2018-12-17T09:52:52.667Z,3.07
2018-12-17T09:55:18.779Z,2.60
2018-12-17T09:57:44.819Z,3.07
2018-12-17T10:00:11.258Z,2.60
2018-12-17T10:02:37.282Z,2.70
2018-12-17T10:05:03.764Z,2.63
2018-12-17T10:07:30.622Z,2.47
2018-12-17T10:09:56.731Z,3.20
2018-12-17T10:12:22.776Z,2.57
2018-12-17T10:14:48.984Z,3.00
2018-12-17T10:17:15.038Z,2.47
2018-12-17T10:19:41.119Z,2.80
2018-12-17T10:22:08.197Z,2.63
2018-12-17T10:24:34.616Z,2.90
2018-12-17T10:27:00.670Z,2.97
2018-12-17T10:29:26.951Z,2.80
2018-12-17T10:31:52.984Z,3.03
2018-12-17T10:34:20.034Z,2.53
2018-12-17T10:36:46.422Z,2.90
2018-12-17T10:39:12.492Z,2.87
2018-12-17T10:41:38.716Z,2.63
2018-12-17T10:46:57.595Z,3.17
2018-12-17T10:49:23.935Z,2.83
2018-12-17T10:51:50.860Z,2.73
2018-12-17T10:54:17.211Z,2.57
2018-12-17T10:56:43.533Z,2.70
2018-12-17T10:59:09.586Z,3.60
2018-12-17T11:01:41.813Z,3.73
2018-12-17T11:04:10.073Z,3.50
2018-12-17T11:06:36.124Z,3.80
2018-12-17T11:09:06.230Z,3.13
2018-12-17T11:11:32.564Z,3.40
2018-12-17T11:13:59.436Z,2.80
2018-12-17T11:16:25.536Z,3.43
2018-12-17T11:21:44.628Z,3.27
2018-12-17T11:24:12.011Z,3.13
2018-12-17T11:26:38.325Z,3.70
2018-12-17T11:29:04.413Z,3.30
2018-12-17T11:31:31.252Z,3.23
2018-12-17T11:33:57.371Z,2.97
2018-12-17T11:36:23.427Z,3.17
2018-12-17T11:38:49.859Z,2.97
2018-12-17T11:41:15.937Z,3.20
2018-12-17T11:43:44.012Z,3.63
2018-12-17T11:46:10.367Z,3.30
2018-12-17T11:48:36.566Z,3.60
2018-12-17T11:51:02.624Z,3.97
2018-12-17T11:53:28.977Z,3.97
2018-12-17T11:55:55.069Z,3.40
2018-12-17T11:58:21.312Z,3.63
2018-12-17T12:00:53.628Z,3.83
2018-12-17T12:03:16.614Z,3.03
2018-12-17T12:05:42.744Z,3.30
2018-12-17T12:08:09.017Z,3.80
2018-12-17T12:10:35.095Z,3.27
2018-12-17T12:13:01.201Z,3.40
2018-12-17T12:15:27.462Z,3.47
2018-12-17T12:17:53.528Z,3.57
2018-12-17T12:20:19.596Z,3.47
2018-12-17T12:22:45.947Z,4.03
2018-12-17T12:25:12.031Z,3.20
2018-12-17T12:27:38.841Z,3.70
2018-12-17T12:30:07.812Z,3.77
2018-12-17T12:32:34.004Z,3.50
2018-12-17T12:35:00.447Z,3.87
2018-12-17T12:37:26.800Z,3.70
2018-12-17T12:39:52.829Z,3.17
2018-12-17T12:42:18.929Z,3.50
2018-12-17T12:44:45.155Z,3.30
2018-12-17T12:47:11.217Z,3.63
2018-12-17T12:49:37.261Z,3.87
2018-12-17T12:52:03.590Z,3.77
2018-12-17T12:54:29.662Z,3.23
2018-12-17T12:56:55.666Z,3.70
2018-12-17T12:59:21.856Z,3.23
2018-12-17T13:01:47.908Z,2.83
2018-12-17T13:04:14.010Z,3.70
2018-12-17T13:06:40.306Z,3.50
2018-12-17T13:09:06.661Z,4.10
2018-12-17T13:11:32.803Z,3.70
2018-12-17T13:13:59.033Z,3.47
2018-12-17T13:16:25.095Z,3.63
2018-12-17T13:18:51.233Z,3.30
2018-12-17T13:21:18.964Z,3.57
2018-12-17T13:23:45.039Z,3.30
2018-12-17T13:26:11.171Z,3.63
2018-12-17T13:28:39.487Z,3.40
2018-12-17T13:31:05.727Z,3.53
2018-12-17T13:33:31.771Z,3.53
2018-12-17T13:35:58.002Z,3.30
2018-12-17T13:38:24.039Z,2.80
2018-12-17T13:40:50.224Z,3.27
2018-12-17T13:43:16.431Z,3.37
2018-12-17T13:45:42.507Z,3.60
2018-12-17T13:48:08.648Z,3.30
2018-12-17T13:50:42.357Z,3.13
2018-12-17T13:53:14.302Z,2.87
2018-12-17T13:55:40.608Z,3.60
2018-12-17T13:58:06.904Z,3.07
2018-12-17T14:00:32.965Z,3.87
2018-12-17T14:02:59.083Z,3.30
2018-12-17T14:05:25.286Z,3.77
2018-12-17T14:07:51.333Z,3.47
2018-12-17T14:10:23.395Z,3.30
2018-12-17T14:12:49.605Z,3.73
2018-12-17T14:15:16.837Z,3.27
2018-12-17T14:17:45.161Z,3.63
2018-12-17T14:20:17.484Z,3.50
2018-12-17T14:22:43.649Z,3.20
2018-12-17T14:25:09.721Z,3.40
2018-12-17T14:27:36.021Z,3.17
2018-12-17T14:30:03.532Z,3.97
2018-12-17T14:32:29.609Z,3.20
2018-12-17T14:34:55.946Z,3.73
2018-12-17T14:37:22.199Z,3.47
2018-12-17T14:39:49.500Z,3.60
2018-12-17T14:42:15.744Z,3.50
2018-12-17T14:44:41.831Z,4.20
2018-12-17T14:47:07.859Z,3.80
2018-12-17T14:49:34.001Z,3.27
2018-12-17T14:52:00.056Z,3.63
2018-12-17T14:54:26.154Z,3.90
2018-12-17T14:56:52.538Z,3.40
2018-12-17T14:59:18.566Z,3.83
2018-12-17T15:01:44.698Z,3.97
2018-12-17T15:04:10.987Z,3.40
2018-12-17T15:06:37.101Z,3.57
2018-12-17T15:09:05.400Z,3.43
2018-12-17T15:11:31.811Z,3.40
2018-12-17T15:13:57.882Z,3.57
2018-12-17T15:16:23.957Z,3.60
2018-12-17T15:18:50.187Z,3.73
2018-12-17T15:21:16.281Z,3.57
2018-12-17T15:23:42.396Z,3.93
2018-12-17T15:26:08.624Z,3.40
2018-12-17T15:28:34.733Z,3.90
2018-12-17T15:31:01.078Z,4.07
2018-12-17T15:33:27.530Z,3.80
2018-12-17T15:35:53.561Z,3.67
2018-12-17T15:38:19.613Z,3.43
2018-12-17T15:40:45.932Z,3.63
2018-12-17T15:43:11.980Z,3.60
2018-12-17T15:45:38.061Z,3.47
2018-12-17T15:48:04.323Z,3.40
2018-12-17T15:50:30.405Z,3.97
2018-12-17T15:52:56.475Z,4.27
2018-12-17T15:55:22.783Z,4.53
2018-12-17T15:57:49.372Z,3.93
2018-12-17T16:00:15.501Z,3.50
2018-12-17T16:02:41.990Z,3.87
2018-12-17T16:05:08.052Z,4.13
2018-12-17T16:07:34.146Z,4.10
2018-12-17T16:10:00.601Z,3.70
2018-12-17T16:12:26.922Z,3.93
2018-12-17T16:14:52.994Z,3.50
2018-12-17T16:17:19.137Z,3.83
2018-12-17T16:19:45.206Z,3.70
2018-12-17T16:22:11.380Z,3.83
2018-12-17T16:24:37.759Z,4.00
2018-12-17T16:27:03.789Z,3.83
2018-12-17T16:29:29.849Z,4.07
2018-12-17T16:31:57.473Z,3.67
2018-12-17T16:34:23.985Z,4.27
2018-12-17T16:36:50.868Z,3.70
2018-12-17T16:39:17.055Z,4.20
2018-12-17T16:41:43.143Z,4.10
2018-12-17T16:44:09.264Z,4.27
2018-12-17T16:46:35.796Z,4.03
2018-12-17T16:49:01.868Z,3.73
2018-12-17T16:51:28.084Z,4.30
2018-12-17T16:53:54.323Z,4.20
2018-12-17T16:56:20.526Z,3.90
2018-12-17T16:58:46.586Z,3.90
2018-12-17T17:01:12.976Z,4.17
2018-12-17T17:03:38.974Z,3.97
2018-12-17T17:06:05.188Z,4.30
2018-12-17T17:08:31.454Z,3.80
2018-12-17T17:10:57.497Z,4.20
2018-12-17T17:13:23.570Z,3.60
2018-12-17T17:15:49.760Z,4.07
2018-12-17T17:18:15.883Z,5.83
2018-12-17T17:20:42.013Z,4.43
2018-12-17T17:23:08.330Z,4.20
2018-12-17T17:25:34.408Z,4.23
2018-12-17T17:28:00.484Z,3.83
2018-12-17T17:30:26.766Z,4.27
2018-12-17T17:32:52.970Z,4.13
2018-12-17T17:35:19.017Z,4.47
2018-12-17T17:37:45.272Z,3.77
2018-12-17T17:40:11.320Z,4.10
2018-12-17T17:42:37.477Z,3.47
2018-12-17T17:45:04.144Z,3.97
2018-12-17T17:47:30.258Z,4.20
2018-12-17T17:49:56.330Z,4.40
2018-12-17T17:52:22.503Z,3.97
2018-12-17T17:54:48.628Z,4.27
2018-12-17T17:57:14.719Z,3.53
2018-12-17T17:59:40.945Z,4.33
2018-12-17T18:02:06.983Z,4.17
2018-12-17T18:04:33.145Z,4.20
2018-12-17T18:06:59.377Z,4.33
2018-12-17T18:09:25.670Z,4.33
2018-12-17T18:11:51.862Z,4.40
2018-12-17T18:14:18.015Z,4.60
2018-12-17T18:16:44.061Z,3.80
2018-12-17T18:19:10.224Z,4.30
2018-12-17T18:21:36.436Z,4.97
2018-12-17T18:24:02.663Z,5.00
2018-12-17T18:26:35.767Z,4.37
2018-12-17T18:29:02.759Z,4.70
2018-12-17T18:31:29.152Z,4.33
2018-12-17T18:33:55.327Z,4.47
2018-12-17T18:36:21.509Z,4.63
2018-12-17T18:38:47.742Z,4.80
2018-12-17T18:41:13.812Z,4.83
2018-12-17T18:43:39.977Z,4.80
2018-12-17T18:46:06.119Z,5.47
2018-12-17T18:48:32.136Z,5.23
2018-12-17T18:50:58.320Z,5.10
2018-12-17T18:53:24.395Z,5.17
2018-12-17T18:55:50.482Z,5.53
2018-12-17T18:58:16.657Z,5.27
2018-12-17T19:00:42.861Z,5.27
2018-12-17T19:03:08.996Z,4.83
2018-12-17T19:05:35.256Z,5.23
2018-12-17T19:08:01.344Z,5.33
2018-12-17T19:10:29.448Z,5.00
2018-12-17T19:12:55.672Z,5.40
2018-12-17T19:15:21.780Z,5.20
2018-12-17T19:17:47.860Z,5.27
2018-12-17T19:20:14.138Z,5.03
2018-12-17T19:22:40.215Z,5.57
2018-12-17T19:25:06.476Z,4.70
2018-12-17T19:27:32.736Z,5.77
2018-12-17T19:29:58.798Z,5.20
2018-12-17T19:32:24.941Z,5.50
2018-12-17T19:34:51.441Z,5.77
2018-12-17T19:37:17.494Z,5.77
2018-12-17T19:39:43.560Z,5.97
2018-12-17T19:42:09.818Z,6.30
2018-12-17T19:44:35.884Z,5.60
2018-12-17T19:47:01.978Z,5.30
2018-12-17T19:49:28.136Z,5.37
2018-12-17T19:51:54.184Z,5.67
2018-12-17T19:54:20.278Z,5.50
2018-12-17T19:56:46.498Z,5.40
2018-12-17T19:59:12.516Z,5.63
2018-12-17T20:01:38.601Z,5.30
2018-12-17T20:04:04.861Z,5.47
2018-12-17T20:06:30.896Z,5.10
2018-12-17T20:08:56.962Z,6.07
2018-12-17T20:11:29.184Z,5.90
2018-12-17T20:13:55.223Z,5.60
2018-12-17T20:16:21.589Z,5.37
2018-12-17T20:18:54.706Z,5.67
2018-12-17T20:21:20.853Z,5.87
2018-12-17T20:23:46.923Z,5.57
2018-12-17T20:26:13.174Z,5.27
2018-12-17T20:28:39.217Z,6.30
2018-12-17T20:31:05.354Z,5.30
2018-12-17T20:33:31.598Z,5.50
2018-12-17T20:35:57.733Z,6.07
2018-12-17T20:38:23.802Z,5.43
2018-12-17T20:40:49.990Z,5.10
2018-12-17T20:43:16.086Z,5.43
2018-12-17T20:45:42.216Z,5.60
2018-12-17T20:48:08.567Z,5.80
2018-12-17T20:50:34.655Z,5.83
2018-12-17T20:53:00.726Z,5.37
2018-12-17T20:55:30.532Z,6.13
2018-12-17T20:57:54.992Z,6.13
2018-12-17T21:00:21.103Z,6.13
2018-12-17T21:05:43.445Z,5.30
2018-12-17T21:08:09.670Z,5.80
2018-12-17T21:10:35.738Z,5.90
2018-12-17T21:13:01.852Z,5.47
2018-12-17T21:15:28.008Z,5.50
2018-12-17T21:17:54.070Z,5.60
2018-12-17T21:20:20.127Z,5.03
2018-12-17T21:22:46.468Z,4.83
2018-12-17T21:25:12.527Z,5.77
2018-12-17T21:27:38.584Z,5.90
2018-12-17T21:30:05.926Z,5.13
2018-12-17T21:32:31.981Z,5.07
2018-12-17T21:34:58.079Z,5.33
2018-12-17T21:37:24.352Z,5.17
2018-12-17T21:39:50.431Z,5.60
2018-12-17T21:42:16.561Z,5.97
2018-12-17T21:44:42.775Z,5.47
2018-12-17T21:47:08.879Z,5.50
2018-12-17T21:49:34.939Z,5.20
2018-12-17T21:52:01.241Z,5.77
2018-12-17T21:54:27.292Z,5.43
2018-12-17T21:56:53.491Z,5.77
2018-12-17T21:59:19.694Z,5.50
2018-12-17T22:01:45.795Z,5.40
2018-12-17T22:04:11.855Z,5.93
2018-12-17T22:06:38.133Z,5.43
2018-12-17T22:09:05.305Z,5.57
2018-12-17T22:11:31.372Z,6.00
2018-12-17T22:13:57.565Z,5.67
2018-12-17T22:16:23.600Z,6.37
2018-12-17T22:18:49.698Z,5.73
2018-12-17T22:21:15.894Z,5.93
2018-12-17T22:23:41.905Z,5.80
2018-12-17T22:26:07.968Z,5.23
2018-12-17T22:28:34.258Z,5.53
2018-12-17T22:34:29.292Z,6.03
2018-12-17T22:36:55.394Z,5.73
2018-12-17T22:39:22.675Z,6.27
2018-12-17T22:41:48.863Z,5.73
2018-12-17T22:44:14.916Z,5.33
2018-12-17T22:46:40.972Z,6.23
2018-12-17T22:49:07.273Z,5.97
2018-12-17T22:51:33.343Z,5.87
2018-12-17T22:53:59.383Z,5.70
2018-12-17T22:56:25.702Z,6.13
2018-12-17T22:58:51.730Z,5.60
2018-12-17T23:01:17.788Z,6.13
2018-12-17T23:03:44.101Z,6.67
2018-12-17T23:06:10.117Z,6.10
2018-12-17T23:08:38.185Z,5.90
2018-12-17T23:11:16.510Z,6.27
2018-12-17T23:13:54.622Z,6.10
2018-12-17T23:16:33.144Z,5.40
2018-12-17T23:18:59.016Z,6.27
2018-12-17T23:21:25.036Z,6.10
2018-12-17T23:23:51.266Z,5.43
2018-12-17T23:26:17.370Z,5.70
2018-12-17T23:28:43.425Z,5.80
2018-12-17T23:31:09.717Z,6.27
2018-12-17T23:36:12.127Z,5.83
2018-12-17T23:38:38.156Z,5.53
2018-12-17T23:41:04.406Z,5.70
2018-12-17T23:43:30.670Z,5.70
2018-12-17T23:45:56.700Z,4.97
2018-12-17T23:48:22.784Z,5.33
2018-12-17T23:50:49.060Z,5.40
2018-12-17T23:53:15.277Z,6.07
2018-12-17T23:55:41.320Z,5.50
2018-12-17T23:58:07.668Z,5.10
